This is the latest recevied weather packets stored in our database for station/object SV1JSO-13. If no packets are shown the sender has not sent any weather packets the latest 10 day(s).
| Time | Temp. | Humidity | Pressure | Rain* | Wind** | Luminosity | Snow |
|---|---|---|---|---|---|---|---|
| 1788397500 | 28.89° C | 34% | 1006.6 hPa | 0 mm | - | 0 W/m² | - |
| 1788397200 | 28.33° C | 37% | 1006.6 hPa | 0 mm | - | 0 W/m² | - |
| 1788396900 | 27.78° C | 40% | 1006.7 hPa | 0 mm | - | 0 W/m² | - |
| 1788396600 | 27.78° C | 41% | 1006.7 hPa | 0 mm | - | 0 W/m² | - |
| 1788396300 | 28.33° C | 39% | 1006.7 hPa | 0 mm | - | 0 W/m² | - |
| 1788396000 | 28.89° C | 38% | 1006.6 hPa | 0 mm | - | 0 W/m² | - |
| 1788395700 | 30° C | 32% | 1006.6 hPa | 0 mm | - | 0 W/m² | - |
| 1788395400 | 30° C | 31% | 1006.7 hPa | 0 mm | - | 0 W/m² | - |
| 1788395101 | 30° C | 31% | 1006.7 hPa | 0 mm | - | 0 W/m² | - |
| 1788394800 | 29.44° C | 32% | 1006.7 hPa | 0 mm | - | 0 W/m² | - |
| 1788394506 | 29.44° C | 32% | 1006.7 hPa | 0 mm | - | 0 W/m² | - |
| 1788394200 | 29.44° C | 32% | 1006.7 hPa | 0 mm | - | 0 W/m² | - |
| 1788393900 | 29.44° C | 32% | 1006.8 hPa | 0 mm | - | 0 W/m² | - |
| 1788393600 | 28.89° C | 33% | 1006.8 hPa | 0 mm | - | 0 W/m² | - |
| 1788393300 | 28.89° C | 33% | 1006.9 hPa | 0 mm | - | 0 W/m² | - |
| 1788393000 | 28.89° C | 34% | 1006.7 hPa | 0 mm | - | 0 W/m² | - |
| 1788392700 | 28.89° C | 34% | 1006.9 hPa | 0 mm | - | 0 W/m² | - |
| 1788392400 | 28.89° C | 34% | 1006.9 hPa | 0 mm | - | 0 W/m² | - |
| 1788392100 | 28.89° C | 34% | 1006.9 hPa | 0 mm | - | 0 W/m² | - |
| 1788391800 | 28.89° C | 34% | 1006.8 hPa | 0 mm | - | 0 W/m² | - |
| 1788391500 | 28.89° C | 34% | 1007 hPa | 0 mm | - | 0 W/m² | - |
| 1788391200 | 28.89° C | 34% | 1007.2 hPa | 0 mm | - | 0 W/m² | - |
| 1788390900 | 28.89° C | 35% | 1007 hPa | 0 mm | - | 0 W/m² | - |
| 1788390600 | 28.89° C | 36% | 1007.1 hPa | 0 mm | - | 0 W/m² | - |
| 1788390301 | 28.89° C | 36% | 1007.2 hPa | 0 mm | - | 0 W/m² | - |
* Rain latest hour (hover to see other rain measurements)
** Current wind speed in m/s (hover to see current wind gust speed)